Exeland, WI (54835)

4:53 PM CST on February 10, 2016 (GMT -0600)
Dairy Strategies HQ | | Change Station
CLOSE
Current Station
Personal Weather Station
Location: Bruce, WI
Elevation: 1099 ft
Nearby Weather Stations

Elev 1099 ft 45.53 °N, 91.23 °W | Updated 5 minutes ago

Mostly Cloudy
Mostly Cloudy
11.2 °F
Feels Like 11 °F
N
1.0
Wind Variable Wind from North
Gusts 1.0 mph

Today
High -- | Low -- °F
--% Chance of Precip.
Yesterday
High -- | Low -- °F
Precip. -- in
Pressure 30.09 in
Visibility 10.0 miles
Clouds Clear
Windchill 11 °F
Dew Point -1 °F
Humidity 57%
Rainfall 0.00 in
Snow Depth Not available.
7:15 AM 5:23 PM
Waxing Crescent, 7% visible
METAR KRCX 102235Z AUTO 35008KT 10SM CLR M11/M19 A3009 RMK AO2 T11151189
Pressure 30.09 in
Visibility 10.0 miles
Clouds Clear
Windchill 11 °F
Dew Point -1 °F
Humidity 57%
Rainfall 0.00 in
Snow Depth Not available.
7:15 AM 5:23 PM
Waxing Crescent, 7% visible
METAR KRCX 102235Z AUTO 35008KT 10SM CLR M11/M19 A3009 RMK AO2 T11151189

10-Day Weather Forecast

Almanac

Astronomy

Feb. 10, 2016 Rise Set
Actual Time
Civil Twilight
Nautical Twilight
Astronomical Twilight
Moon
Length of Visible Light
Length of Day
Tomorrow will be .
, % of the Moon is Illuminated

Today's Extremes

State Highs State Lows

Community

WunderPhotos

Upload Photos

1,891,940 photos uploaded!

WunderBlog® & News

Nearby

Air Quality

  Air Quality AQ Index Pollutant
Not available.

Snow Depth

Station Depth Elevation

Earthquake Activity

City Distance Mag. Time & Date
Minimum magnitude displayed is 2.5.

Coastal Water Temperatures

Place Temperature

Stations

Nearby Weather Stations

Station Location Temp. Windchill Dew Point Humidity Wind Precip. Elev Updated Type
                   

Watches & Warnings

There are currently no watches in effect.